Terminal Aerodrome Forecast
Issued by NWS

Home | Current Version | Previous Version | Text Only | Print | Product List | Glossary On
Versions: 1 2 3 4 5 6 7 8 9 10 11 12 13 14 15
622
FTUS43 KIND 221128
TAFLAF
TAF
KLAF 221128Z 2212/2312 17006KT P6SM SCT250 WS020/19040KT
     FM221400 18011G22KT P6SM BKN100 WS020/19035KT
     FM222200 20010KT P6SM SHRA OVC035 WS020/18035KT
     FM230100 27006KT 4SM SHRA BR OVC030
     FM230900 33005KT 4SM SHRA BR OVC008
      AMD LTD TO CLD VIS AND WIND TIL 221300=

USA.gov is the U.S. government's official web portal to all federal, state and local government web resources and services.